sensor_id;sensor_type;location;lat;lon;timestamp;P1;durP1;ratioP1;P2;durP2;ratioP2
27225;SDS011;14732;51.074;3.788;2023-04-01T00:00:17;15.13;;;4.90;;
27225;SDS011;14732;51.074;3.788;2023-04-01T00:02:43;15.68;;;5.20;;
27225;SDS011;14732;51.074;3.788;2023-04-01T00:05:09;12.77;;;5.18;;
27225;SDS011;14732;51.074;3.788;2023-04-01T00:07:39;11.95;;;5.20;;
27225;SDS011;14732;51.074;3.788;2023-04-01T00:10:06;15.90;;;5.78;;
27225;SDS011;14732;51.074;3.788;2023-04-01T00:12:33;19.02;;;5.28;;
27225;SDS011;14732;51.074;3.788;2023-04-01T00:14:59;10.65;;;4.70;;
27225;SDS011;14732;51.074;3.788;2023-04-01T00:17:26;13.50;;;5.30;;
27225;SDS011;14732;51.074;3.788;2023-04-01T00:19:53;13.70;;;5.00;;
27225;SDS011;14732;51.074;3.788;2023-04-01T00:22:20;16.02;;;5.40;;
27225;SDS011;14732;51.074;3.788;2023-04-01T00:24:46;13.45;;;5.05;;
27225;SDS011;14732;51.074;3.788;2023-04-01T00:27:12;14.40;;;5.28;;
27225;SDS011;14732;51.074;3.788;2023-04-01T00:29:37;12.52;;;4.80;;
27225;SDS011;14732;51.074;3.788;2023-04-01T00:32:06;16.13;;;4.72;;
27225;SDS011;14732;51.074;3.788;2023-04-01T00:34:32;16.70;;;5.07;;
27225;SDS011;14732;51.074;3.788;2023-04-01T00:36:57;15.88;;;4.95;;
27225;SDS011;14732;51.074;3.788;2023-04-01T00:39:23;14.75;;;4.55;;
27225;SDS011;14732;51.074;3.788;2023-04-01T00:41:49;11.02;;;3.97;;
27225;SDS011;14732;51.074;3.788;2023-04-01T00:44:16;13.40;;;3.65;;
27225;SDS011;14732;51.074;3.788;2023-04-01T00:46:44;10.43;;;3.25;;
27225;SDS011;14732;51.074;3.788;2023-04-01T00:49:10;8.63;;;3.15;;
27225;SDS011;14732;51.074;3.788;2023-04-01T00:51:37;12.45;;;2.92;;
27225;SDS011;14732;51.074;3.788;2023-04-01T00:54:06;14.05;;;2.95;;
27225;SDS011;14732;51.074;3.788;2023-04-01T00:56:37;9.32;;;3.03;;
27225;SDS011;14732;51.074;3.788;2023-04-01T00:59:08;11.90;;;2.58;;
27225;SDS011;14732;51.074;3.788;2023-04-01T01:01:47;9.75;;;2.40;;
27225;SDS011;14732;51.074;3.788;2023-04-01T01:04:26;5.72;;;2.30;;
27225;SDS011;14732;51.074;3.788;2023-04-01T01:12:21;10.05;;;2.15;;
27225;SDS011;14732;51.074;3.788;2023-04-01T01:15:02;7.97;;;2.42;;
27225;SDS011;14732;51.074;3.788;2023-04-01T01:20:48;7.13;;;2.67;;
27225;SDS011;14732;51.074;3.788;2023-04-01T01:29:22;9.23;;;2.88;;
27225;SDS011;14732;51.074;3.788;2023-04-01T01:37:45;16.13;;;3.92;;
27225;SDS011;14732;51.074;3.788;2023-04-01T01:40:13;11.63;;;3.33;;
27225;SDS011;14732;51.074;3.788;2023-04-01T01:42:43;10.13;;;3.40;;
27225;SDS011;14732;51.074;3.788;2023-04-01T01:45:12;10.32;;;3.08;;
27225;SDS011;14732;51.074;3.788;2023-04-01T01:47:42;14.75;;;4.07;;
27225;SDS011;14732;51.074;3.788;2023-04-01T01:50:09;13.80;;;3.40;;
27225;SDS011;14732;51.074;3.788;2023-04-01T01:52:35;13.68;;;3.30;;
27225;SDS011;14732;51.074;3.788;2023-04-01T01:55:01;11.20;;;3.40;;
27225;SDS011;14732;51.074;3.788;2023-04-01T01:57:31;10.27;;;3.05;;
27225;SDS011;14732;51.074;3.788;2023-04-01T02:00:04;7.18;;;2.85;;
27225;SDS011;14732;51.074;3.788;2023-04-01T02:02:39;14.45;;;2.97;;
27225;SDS011;14732;51.074;3.788;2023-04-01T02:05:14;12.90;;;3.03;;
27225;SDS011;14732;51.074;3.788;2023-04-01T02:07:42;5.97;;;2.45;;
27225;SDS011;14732;51.074;3.788;2023-04-01T02:10:12;10.02;;;2.80;;
27225;SDS011;14732;51.074;3.788;2023-04-01T02:12:38;9.02;;;2.67;;
27225;SDS011;14732;51.074;3.788;2023-04-01T02:17:35;9.45;;;2.58;;
27225;SDS011;14732;51.074;3.788;2023-04-01T02:20:07;9.48;;;2.30;;
27225;SDS011;14732;51.074;3.788;2023-04-01T02:22:39;6.78;;;1.90;;
27225;SDS011;14732;51.074;3.788;2023-04-01T02:25:10;5.63;;;2.13;;
27225;SDS011;14732;51.074;3.788;2023-04-01T02:27:39;7.25;;;2.33;;
27225;SDS011;14732;51.074;3.788;2023-04-01T02:30:07;7.72;;;2.40;;
27225;SDS011;14732;51.074;3.788;2023-04-01T02:32:34;5.72;;;2.20;;
27225;SDS011;14732;51.074;3.788;2023-04-01T02:35:04;8.27;;;2.78;;
27225;SDS011;14732;51.074;3.788;2023-04-01T02:37:41;7.25;;;2.88;;
27225;SDS011;14732;51.074;3.788;2023-04-01T02:40:09;9.45;;;3.35;;
27225;SDS011;14732;51.074;3.788;2023-04-01T02:42:37;11.80;;;3.67;;
27225;SDS011;14732;51.074;3.788;2023-04-01T02:45:03;9.20;;;3.50;;
27225;SDS011;14732;51.074;3.788;2023-04-01T02:47:30;6.22;;;3.05;;
27225;SDS011;14732;51.074;3.788;2023-04-01T02:49:56;9.38;;;3.75;;
27225;SDS011;14732;51.074;3.788;2023-04-01T02:52:32;10.95;;;4.03;;
27225;SDS011;14732;51.074;3.788;2023-04-01T02:54:58;11.30;;;3.83;;
27225;SDS011;14732;51.074;3.788;2023-04-01T02:57:24;16.27;;;4.22;;
27225;SDS011;14732;51.074;3.788;2023-04-01T02:59:50;18.73;;;4.30;;
27225;SDS011;14732;51.074;3.788;2023-04-01T03:02:16;11.20;;;3.70;;
27225;SDS011;14732;51.074;3.788;2023-04-01T03:04:42;10.55;;;3.58;;
27225;SDS011;14732;51.074;3.788;2023-04-01T03:07:08;9.23;;;3.70;;
27225;SDS011;14732;51.074;3.788;2023-04-01T03:09:37;14.48;;;3.97;;
27225;SDS011;14732;51.074;3.788;2023-04-01T03:12:04;14.20;;;4.57;;
27225;SDS011;14732;51.074;3.788;2023-04-01T03:14:30;10.35;;;4.40;;
27225;SDS011;14732;51.074;3.788;2023-04-01T03:16:56;11.40;;;4.13;;
27225;SDS011;14732;51.074;3.788;2023-04-01T03:19:21;8.02;;;3.63;;
27225;SDS011;14732;51.074;3.788;2023-04-01T03:21:47;8.38;;;3.80;;
27225;SDS011;14732;51.074;3.788;2023-04-01T03:24:13;9.30;;;4.10;;
27225;SDS011;14732;51.074;3.788;2023-04-01T03:26:38;9.73;;;3.97;;
27225;SDS011;14732;51.074;3.788;2023-04-01T03:29:04;6.47;;;3.00;;
27225;SDS011;14732;51.074;3.788;2023-04-01T03:31:30;7.40;;;3.08;;
27225;SDS011;14732;51.074;3.788;2023-04-01T03:33:55;6.95;;;2.95;;
27225;SDS011;14732;51.074;3.788;2023-04-01T03:36:21;7.68;;;3.00;;
27225;SDS011;14732;51.074;3.788;2023-04-01T03:38:47;3.97;;;2.42;;
27225;SDS011;14732;51.074;3.788;2023-04-01T03:41:13;8.00;;;2.72;;
27225;SDS011;14732;51.074;3.788;2023-04-01T03:43:40;3.72;;;2.30;;
27225;SDS011;14732;51.074;3.788;2023-04-01T03:46:06;4.82;;;2.15;;
27225;SDS011;14732;51.074;3.788;2023-04-01T03:48:32;4.43;;;2.22;;
27225;SDS011;14732;51.074;3.788;2023-04-01T03:50:58;2.88;;;1.88;;
27225;SDS011;14732;51.074;3.788;2023-04-01T03:53:23;6.07;;;2.13;;
27225;SDS011;14732;51.074;3.788;2023-04-01T03:55:49;6.22;;;2.42;;
27225;SDS011;14732;51.074;3.788;2023-04-01T03:58:16;4.72;;;2.67;;
27225;SDS011;14732;51.074;3.788;2023-04-01T04:00:42;5.65;;;2.58;;
27225;SDS011;14732;51.074;3.788;2023-04-01T04:03:08;5.70;;;2.50;;
27225;SDS011;14732;51.074;3.788;2023-04-01T04:05:34;4.60;;;2.50;;
27225;SDS011;14732;51.074;3.788;2023-04-01T04:07:59;4.53;;;2.90;;
27225;SDS011;14732;51.074;3.788;2023-04-01T04:10:25;2.95;;;2.28;;
27225;SDS011;14732;51.074;3.788;2023-04-01T04:12:51;3.50;;;2.60;;
27225;SDS011;14732;51.074;3.788;2023-04-01T04:15:17;3.42;;;2.53;;
27225;SDS011;14732;51.074;3.788;2023-04-01T04:17:46;3.17;;;2.30;;
27225;SDS011;14732;51.074;3.788;2023-04-01T04:20:12;4.40;;;2.35;;
27225;SDS011;14732;51.074;3.788;2023-04-01T04:22:38;5.30;;;2.38;;
27225;SDS011;14732;51.074;3.788;2023-04-01T04:25:04;2.95;;;2.15;;
27225;SDS011;14732;51.074;3.788;2023-04-01T04:27:30;6.32;;;3.05;;
27225;SDS011;14732;51.074;3.788;2023-04-01T04:29:56;8.40;;;2.80;;
27225;SDS011;14732;51.074;3.788;2023-04-01T04:32:21;3.72;;;2.72;;
27225;SDS011;14732;51.074;3.788;2023-04-01T04:34:47;5.13;;;2.97;;
27225;SDS011;14732;51.074;3.788;2023-04-01T04:37:13;7.38;;;2.80;;
27225;SDS011;14732;51.074;3.788;2023-04-01T04:39:38;7.43;;;2.88;;
27225;SDS011;14732;51.074;3.788;2023-04-01T04:42:05;7.78;;;2.88;;
27225;SDS011;14732;51.074;3.788;2023-04-01T04:44:31;4.65;;;2.92;;
27225;SDS011;14732;51.074;3.788;2023-04-01T04:46:56;3.63;;;2.67;;
27225;SDS011;14732;51.074;3.788;2023-04-01T04:49:22;5.55;;;2.72;;
27225;SDS011;14732;51.074;3.788;2023-04-01T04:51:48;4.18;;;2.42;;
27225;SDS011;14732;51.074;3.788;2023-04-01T04:54:13;7.82;;;2.75;;
27225;SDS011;14732;51.074;3.788;2023-04-01T04:56:39;7.28;;;2.95;;
27225;SDS011;14732;51.074;3.788;2023-04-01T04:59:05;4.10;;;2.67;;
27225;SDS011;14732;51.074;3.788;2023-04-01T05:01:31;4.70;;;3.08;;
27225;SDS011;14732;51.074;3.788;2023-04-01T05:03:58;4.97;;;2.95;;
27225;SDS011;14732;51.074;3.788;2023-04-01T05:06:24;6.03;;;2.72;;
27225;SDS011;14732;51.074;3.788;2023-04-01T05:08:50;7.88;;;3.30;;
27225;SDS011;14732;51.074;3.788;2023-04-01T05:11:17;7.80;;;3.75;;
27225;SDS011;14732;51.074;3.788;2023-04-01T05:13:44;7.03;;;4.07;;
27225;SDS011;14732;51.074;3.788;2023-04-01T05:16:11;8.43;;;4.03;;
27225;SDS011;14732;51.074;3.788;2023-04-01T05:18:39;5.87;;;2.90;;
27225;SDS011;14732;51.074;3.788;2023-04-01T05:21:06;4.57;;;2.95;;
27225;SDS011;14732;51.074;3.788;2023-04-01T05:23:33;4.22;;;2.90;;
27225;SDS011;14732;51.074;3.788;2023-04-01T05:26:02;4.95;;;3.30;;
27225;SDS011;14732;51.074;3.788;2023-04-01T05:28:32;6.28;;;3.35;;
27225;SDS011;14732;51.074;3.788;2023-04-01T05:31:02;8.40;;;3.53;;
27225;SDS011;14732;51.074;3.788;2023-04-01T05:33:28;5.82;;;3.22;;
27225;SDS011;14732;51.074;3.788;2023-04-01T05:35:54;3.38;;;2.67;;
27225;SDS011;14732;51.074;3.788;2023-04-01T05:38:20;4.22;;;2.20;;
27225;SDS011;14732;51.074;3.788;2023-04-01T05:40:46;4.70;;;2.63;;
27225;SDS011;14732;51.074;3.788;2023-04-01T05:43:11;6.53;;;2.40;;
27225;SDS011;14732;51.074;3.788;2023-04-01T05:45:37;3.45;;;2.10;;
27225;SDS011;14732;51.074;3.788;2023-04-01T05:48:03;4.78;;;2.50;;
27225;SDS011;14732;51.074;3.788;2023-04-01T05:50:29;2.42;;;1.75;;
27225;SDS011;14732;51.074;3.788;2023-04-01T05:52:55;5.78;;;2.30;;
27225;SDS011;14732;51.074;3.788;2023-04-01T05:55:20;3.25;;;2.00;;
27225;SDS011;14732;51.074;3.788;2023-04-01T05:57:46;4.10;;;1.75;;
27225;SDS011;14732;51.074;3.788;2023-04-01T06:00:14;6.65;;;1.75;;
27225;SDS011;14732;51.074;3.788;2023-04-01T06:02:41;4.13;;;1.50;;
27225;SDS011;14732;51.074;3.788;2023-04-01T06:07:42;2.28;;;1.35;;
27225;SDS011;14732;51.074;3.788;2023-04-01T06:10:16;2.97;;;1.90;;
27225;SDS011;14732;51.074;3.788;2023-04-01T06:24:05;2.38;;;1.50;;
27225;SDS011;14732;51.074;3.788;2023-04-01T06:32:51;1.75;;;1.00;;
27225;SDS011;14732;51.074;3.788;2023-04-01T06:40:53;2.05;;;1.20;;
27225;SDS011;14732;51.074;3.788;2023-04-01T06:55:24;3.78;;;1.40;;
27225;SDS011;14732;51.074;3.788;2023-04-01T06:57:43;2.70;;;1.23;;
27225;SDS011;14732;51.074;3.788;2023-04-01T07:00:18;1.90;;;1.30;;
27225;SDS011;14732;51.074;3.788;2023-04-01T07:02:55;2.50;;;1.33;;
27225;SDS011;14732;51.074;3.788;2023-04-01T07:05:41;1.38;;;1.02;;
27225;SDS011;14732;51.074;3.788;2023-04-01T07:08:16;2.00;;;0.80;;
27225;SDS011;14732;51.074;3.788;2023-04-01T07:10:49;1.40;;;0.70;;
27225;SDS011;14732;51.074;3.788;2023-04-01T07:13:25;3.38;;;0.80;;
27225;SDS011;14732;51.074;3.788;2023-04-01T07:16:06;2.13;;;0.70;;
27225;SDS011;14732;51.074;3.788;2023-04-01T07:19:25;1.40;;;0.80;;
27225;SDS011;14732;51.074;3.788;2023-04-01T07:24:39;1.40;;;0.80;;
27225;SDS011;14732;51.074;3.788;2023-04-01T07:27:02;1.98;;;0.70;;
27225;SDS011;14732;51.074;3.788;2023-04-01T07:29:30;2.80;;;0.80;;
27225;SDS011;14732;51.074;3.788;2023-04-01T07:37:36;0.60;;;0.60;;
27225;SDS011;14732;51.074;3.788;2023-04-01T07:43:26;1.27;;;0.80;;
27225;SDS011;14732;51.074;3.788;2023-04-01T07:49:01;1.17;;;0.70;;
27225;SDS011;14732;51.074;3.788;2023-04-01T08:05:19;1.90;;;0.75;;
27225;SDS011;14732;51.074;3.788;2023-04-01T08:11:08;3.75;;;1.10;;
27225;SDS011;14732;51.074;3.788;2023-04-01T08:21:54;2.50;;;1.10;;
27225;SDS011;14732;51.074;3.788;2023-04-01T08:24:38;4.75;;;1.25;;
27225;SDS011;14732;51.074;3.788;2023-04-01T08:27:42;3.78;;;1.33;;
27225;SDS011;14732;51.074;3.788;2023-04-01T08:35:26;5.38;;;1.60;;
27225;SDS011;14732;51.074;3.788;2023-04-01T08:45:02;7.88;;;1.90;;
27225;SDS011;14732;51.074;3.788;2023-04-01T09:01:10;3.03;;;1.60;;
27225;SDS011;14732;51.074;3.788;2023-04-01T09:03:58;3.90;;;1.55;;
27225;SDS011;14732;51.074;3.788;2023-04-01T09:31:57;2.80;;;0.55;;
27225;SDS011;14732;51.074;3.788;2023-04-01T09:48:06;2.00;;;0.77;;
27225;SDS011;14732;51.074;3.788;2023-04-01T10:12:02;1.17;;;0.50;;
27225;SDS011;14732;51.074;3.788;2023-04-01T10:50:01;0.55;;;0.40;;
27225;SDS011;14732;51.074;3.788;2023-04-01T11:13:37;1.10;;;0.65;;
27225;SDS011;14732;51.074;3.788;2023-04-01T11:58:47;2.22;;;1.40;;
27225;SDS011;14732;51.074;3.788;2023-04-01T12:01:44;2.88;;;1.50;;
27225;SDS011;14732;51.074;3.788;2023-04-01T12:14:44;2.55;;;1.23;;
27225;SDS011;14732;51.074;3.788;2023-04-01T12:23:11;1.08;;;0.85;;
27225;SDS011;14732;51.074;3.788;2023-04-01T12:28:25;3.55;;;1.23;;
27225;SDS011;14732;51.074;3.788;2023-04-01T12:39:32;3.80;;;0.93;;
27225;SDS011;14732;51.074;3.788;2023-04-01T12:45:30;1.08;;;0.82;;
27225;SDS011;14732;51.074;3.788;2023-04-01T12:48:48;1.60;;;0.73;;
27225;SDS011;14732;51.074;3.788;2023-04-01T13:27:18;4.35;;;0.95;;
27225;SDS011;14732;51.074;3.788;2023-04-01T13:32:46;3.72;;;0.77;;
27225;SDS011;14732;51.074;3.788;2023-04-01T13:35:18;2.80;;;1.10;;
27225;SDS011;14732;51.074;3.788;2023-04-01T13:38:08;4.10;;;0.90;;
27225;SDS011;14732;51.074;3.788;2023-04-01T13:41:01;1.60;;;0.90;;
27225;SDS011;14732;51.074;3.788;2023-04-01T13:43:52;4.57;;;1.08;;
27225;SDS011;14732;51.074;3.788;2023-04-01T14:11:56;1.52;;;0.60;;
27225;SDS011;14732;51.074;3.788;2023-04-01T14:20:00;2.25;;;0.80;;
27225;SDS011;14732;51.074;3.788;2023-04-01T14:29:14;4.00;;;0.88;;
27225;SDS011;14732;51.074;3.788;2023-04-01T14:51:16;1.40;;;0.80;;
27225;SDS011;14732;51.074;3.788;2023-04-01T14:56:34;1.50;;;0.60;;
27225;SDS011;14732;51.074;3.788;2023-04-01T15:02:08;1.30;;;0.90;;
27225;SDS011;14732;51.074;3.788;2023-04-01T15:05:05;2.90;;;0.90;;
27225;SDS011;14732;51.074;3.788;2023-04-01T15:29:56;3.70;;;1.15;;
27225;SDS011;14732;51.074;3.788;2023-04-01T15:35:21;2.38;;;1.08;;
27225;SDS011;14732;51.074;3.788;2023-04-01T15:43:41;2.97;;;1.27;;
27225;SDS011;14732;51.074;3.788;2023-04-01T16:27:41;2.83;;;1.48;;
27225;SDS011;14732;51.074;3.788;2023-04-01T16:30:26;4.13;;;1.55;;
27225;SDS011;14732;51.074;3.788;2023-04-01T16:38:43;2.05;;;1.42;;
27225;SDS011;14732;51.074;3.788;2023-04-01T16:41:18;2.88;;;1.40;;
27225;SDS011;14732;51.074;3.788;2023-04-01T16:43:55;2.40;;;1.58;;
27225;SDS011;14732;51.074;3.788;2023-04-01T16:49:29;3.53;;;1.88;;
27225;SDS011;14732;51.074;3.788;2023-04-01T16:57:26;3.45;;;2.13;;
27225;SDS011;14732;51.074;3.788;2023-04-01T17:00:16;5.00;;;2.50;;
27225;SDS011;14732;51.074;3.788;2023-04-01T17:13:45;5.53;;;2.47;;
27225;SDS011;14732;51.074;3.788;2023-04-01T17:19:24;3.63;;;1.90;;
27225;SDS011;14732;51.074;3.788;2023-04-01T17:22:32;2.63;;;2.05;;
27225;SDS011;14732;51.074;3.788;2023-04-01T17:30:44;3.17;;;1.48;;
27225;SDS011;14732;51.074;3.788;2023-04-01T17:36:36;3.50;;;1.90;;
27225;SDS011;14732;51.074;3.788;2023-04-01T17:39:32;3.95;;;1.70;;
27225;SDS011;14732;51.074;3.788;2023-04-01T17:47:41;13.25;;;7.90;;
27225;SDS011;14732;51.074;3.788;2023-04-01T17:50:21;9.63;;;3.83;;
27225;SDS011;14732;51.074;3.788;2023-04-01T17:53:11;13.90;;;8.32;;
27225;SDS011;14732;51.074;3.788;2023-04-01T17:58:18;13.13;;;5.18;;
27225;SDS011;14732;51.074;3.788;2023-04-01T18:17:24;6.95;;;4.57;;
27225;SDS011;14732;51.074;3.788;2023-04-01T18:20:01;9.18;;;5.47;;
27225;SDS011;14732;51.074;3.788;2023-04-01T18:25:43;12.05;;;5.70;;
27225;SDS011;14732;51.074;3.788;2023-04-01T18:42:10;18.55;;;6.47;;
27225;SDS011;14732;51.074;3.788;2023-04-01T18:44:53;15.98;;;8.13;;
27225;SDS011;14732;51.074;3.788;2023-04-01T18:47:31;18.13;;;7.30;;
27225;SDS011;14732;51.074;3.788;2023-04-01T18:50:18;18.75;;;8.13;;
27225;SDS011;14732;51.074;3.788;2023-04-01T18:52:55;22.75;;;7.65;;
27225;SDS011;14732;51.074;3.788;2023-04-01T18:55:57;17.85;;;7.40;;
27225;SDS011;14732;51.074;3.788;2023-04-01T18:58:26;19.42;;;7.90;;
27225;SDS011;14732;51.074;3.788;2023-04-01T19:01:15;35.80;;;9.45;;
27225;SDS011;14732;51.074;3.788;2023-04-01T19:06:22;28.90;;;7.10;;
27225;SDS011;14732;51.074;3.788;2023-04-01T19:17:43;22.67;;;7.75;;
27225;SDS011;14732;51.074;3.788;2023-04-01T19:20:18;28.90;;;8.27;;
27225;SDS011;14732;51.074;3.788;2023-04-01T19:22:59;25.23;;;6.88;;
27225;SDS011;14732;51.074;3.788;2023-04-01T19:34:13;29.13;;;7.28;;
27225;SDS011;14732;51.074;3.788;2023-04-01T19:52:48;18.45;;;5.55;;
27225;SDS011;14732;51.074;3.788;2023-04-01T19:55:33;24.00;;;5.22;;
27225;SDS011;14732;51.074;3.788;2023-04-01T20:00:53;22.45;;;6.32;;
27225;SDS011;14732;51.074;3.788;2023-04-01T20:03:43;15.90;;;5.53;;
27225;SDS011;14732;51.074;3.788;2023-04-01T20:06:32;11.93;;;5.20;;
27225;SDS011;14732;51.074;3.788;2023-04-01T20:17:06;40.55;;;19.98;;
27225;SDS011;14732;51.074;3.788;2023-04-01T20:19:53;18.45;;;6.72;;
27225;SDS011;14732;51.074;3.788;2023-04-01T20:22:25;24.50;;;11.10;;
27225;SDS011;14732;51.074;3.788;2023-04-01T20:25:20;23.23;;;7.85;;
27225;SDS011;14732;51.074;3.788;2023-04-01T20:27:58;23.63;;;8.07;;
27225;SDS011;14732;51.074;3.788;2023-04-01T20:36:45;25.25;;;10.52;;
27225;SDS011;14732;51.074;3.788;2023-04-01T20:41:25;31.92;;;9.35;;
27225;SDS011;14732;51.074;3.788;2023-04-01T20:44:17;25.33;;;9.13;;
27225;SDS011;14732;51.074;3.788;2023-04-01T20:49:34;34.00;;;9.90;;
27225;SDS011;14732;51.074;3.788;2023-04-01T21:08:16;49.17;;;13.70;;
27225;SDS011;14732;51.074;3.788;2023-04-01T21:16:33;42.95;;;12.50;;
27225;SDS011;14732;51.074;3.788;2023-04-01T21:27:28;40.45;;;12.60;;
27225;SDS011;14732;51.074;3.788;2023-04-01T21:46:48;45.13;;;12.77;;
27225;SDS011;14732;51.074;3.788;2023-04-01T21:55:07;32.42;;;11.82;;
27225;SDS011;14732;51.074;3.788;2023-04-01T22:00:25;33.15;;;11.93;;
27225;SDS011;14732;51.074;3.788;2023-04-01T22:22:48;42.72;;;14.20;;
27225;SDS011;14732;51.074;3.788;2023-04-01T22:28:07;43.20;;;14.50;;
27225;SDS011;14732;51.074;3.788;2023-04-01T22:30:55;42.17;;;14.70;;
27225;SDS011;14732;51.074;3.788;2023-04-01T22:55:38;35.20;;;14.95;;
27225;SDS011;14732;51.074;3.788;2023-04-01T22:58:08;33.85;;;15.40;;
27225;SDS011;14732;51.074;3.788;2023-04-01T23:00:41;28.85;;;15.27;;
27225;SDS011;14732;51.074;3.788;2023-04-01T23:06:05;31.70;;;15.63;;
27225;SDS011;14732;51.074;3.788;2023-04-01T23:11:14;29.98;;;15.85;;
27225;SDS011;14732;51.074;3.788;2023-04-01T23:13:45;28.85;;;15.82;;
27225;SDS011;14732;51.074;3.788;2023-04-01T23:16:18;34.58;;;16.70;;
27225;SDS011;14732;51.074;3.788;2023-04-01T23:19:11;32.05;;;16.63;;
27225;SDS011;14732;51.074;3.788;2023-04-01T23:24:55;38.88;;;18.48;;
27225;SDS011;14732;51.074;3.788;2023-04-01T23:27:39;37.17;;;18.58;;
27225;SDS011;14732;51.074;3.788;2023-04-01T23:35:56;35.63;;;19.50;;
27225;SDS011;14732;51.074;3.788;2023-04-01T23:38:40;35.08;;;20.35;;
27225;SDS011;14732;51.074;3.788;2023-04-01T23:43:56;37.25;;;21.67;;
27225;SDS011;14732;51.074;3.788;2023-04-01T23:46:25;43.38;;;21.80;;
27225;SDS011;14732;51.074;3.788;2023-04-01T23:48:53;40.70;;;21.92;;
27225;SDS011;14732;51.074;3.788;2023-04-01T23:54:03;39.50;;;22.15;;
27225;SDS011;14732;51.074;3.788;2023-04-01T23:56:39;36.72;;;21.02;;
27225;SDS011;14732;51.074;3.788;2023-04-01T23:59:13;34.15;;;21.80;;
